createdAt,value
2022-10-02T07:25:40.769Z,12.93
2022-10-02T07:31:07.234Z,8.60
2022-10-02T07:36:23.441Z,11.93
2022-10-02T07:41:52.359Z,9.27
2022-10-02T07:47:05.231Z,7.40
2022-10-02T07:52:40.472Z,12.73
2022-10-02T07:58:12.744Z,9.77
2022-10-02T08:03:41.394Z,6.77
2022-10-02T08:09:00.980Z,7.90
2022-10-02T08:14:09.306Z,7.40
2022-10-02T08:19:25.216Z,7.00
2022-10-02T08:24:35.788Z,7.63
2022-10-02T08:29:45.187Z,6.30
2022-10-02T08:34:48.170Z,7.73
2022-10-02T08:40:25.743Z,7.27
2022-10-02T08:45:56.572Z,8.43
2022-10-02T08:51:35.951Z,6.43
2022-10-02T08:57:26.226Z,8.07
2022-10-02T09:03:02.812Z,6.67
2022-10-02T09:08:42.961Z,5.53
2022-10-02T09:14:10.219Z,6.90
2022-10-02T09:19:41.894Z,5.17
2022-10-02T09:24:53.854Z,9.10
2022-10-02T09:30:18.418Z,7.37
2022-10-02T09:35:29.881Z,7.80
2022-10-02T09:40:47.439Z,11.03
2022-10-02T09:45:52.940Z,8.63
2022-10-02T09:51:08.005Z,5.40
2022-10-02T09:56:50.557Z,7.20
2022-10-02T10:02:20.411Z,6.77
2022-10-02T10:07:36.714Z,5.60
2022-10-02T10:12:58.028Z,8.63
2022-10-02T10:18:09.978Z,6.70
2022-10-02T10:24:07.901Z,8.60
2022-10-02T10:29:39.078Z,8.73
2022-10-02T10:35:06.004Z,11.63
2022-10-02T10:40:15.814Z,10.53
2022-10-02T10:45:30.285Z,11.17
2022-10-02T10:51:03.357Z,5.33
2022-10-02T10:56:37.178Z,5.10
2022-10-02T11:02:17.623Z,6.40
2022-10-02T11:07:23.069Z,5.63
2022-10-02T11:12:36.371Z,6.73
2022-10-02T11:18:14.694Z,4.10
2022-10-02T11:23:29.307Z,4.37
2022-10-02T11:28:48.047Z,4.93
2022-10-02T11:34:03.363Z,4.70
2022-10-02T11:39:25.448Z,5.43
2022-10-02T11:44:40.028Z,5.43
2022-10-02T11:50:10.601Z,4.73
2022-10-02T11:55:28.850Z,5.77
2022-10-02T12:00:40.518Z,4.77
2022-10-02T12:06:48.095Z,6.10
2022-10-02T12:12:01.924Z,7.30
2022-10-02T12:17:27.957Z,11.93
2022-10-02T12:23:12.588Z,9.03
2022-10-02T12:28:44.404Z,9.00
2022-10-02T12:34:28.031Z,10.33
2022-10-02T12:39:36.563Z,6.20
2022-10-02T12:45:00.852Z,10.53
2022-10-02T12:50:16.464Z,8.20
2022-10-02T12:55:38.587Z,6.37
2022-10-02T13:00:59.369Z,11.47
2022-10-02T13:06:23.970Z,8.33
2022-10-02T13:11:44.934Z,10.07
2022-10-02T13:17:10.243Z,9.10
2022-10-02T13:22:44.567Z,10.43
2022-10-02T13:27:53.248Z,7.50
2022-10-02T13:33:13.947Z,6.83
2022-10-02T13:39:02.446Z,8.63
2022-10-02T13:44:30.059Z,6.60
2022-10-02T13:49:35.559Z,10.33
2022-10-02T13:55:10.754Z,9.07
2022-10-02T14:00:23.790Z,9.83
2022-10-02T14:05:57.649Z,11.17
2022-10-02T14:11:23.388Z,4.87
2022-10-02T14:16:44.653Z,7.47
2022-10-02T14:22:08.798Z,5.67
2022-10-02T14:27:41.455Z,6.33
2022-10-02T14:33:02.693Z,5.67
2022-10-02T14:38:20.293Z,3.90
2022-10-02T14:43:51.723Z,6.33
2022-10-02T14:49:13.044Z,6.70
2022-10-02T14:54:44.204Z,6.93
2022-10-02T15:00:03.321Z,6.07
2022-10-02T15:05:27.195Z,8.80
2022-10-02T15:10:38.506Z,9.00
2022-10-02T15:16:12.861Z,7.77
2022-10-02T15:21:34.456Z,6.73
2022-10-02T15:26:46.702Z,7.57
2022-10-02T15:32:08.159Z,4.77
2022-10-02T15:37:25.851Z,6.30
2022-10-02T15:42:51.210Z,6.73
2022-10-02T15:48:29.182Z,9.20
2022-10-02T15:53:55.024Z,5.37
2022-10-02T15:59:16.614Z,9.87
2022-10-02T16:04:48.952Z,6.07
2022-10-02T16:10:02.519Z,5.63
2022-10-02T16:15:20.218Z,6.57
2022-10-02T16:20:47.957Z,7.47
2022-10-02T16:26:31.717Z,7.57
2022-10-02T16:31:34.468Z,6.57
2022-10-02T16:36:52.988Z,8.10
2022-10-02T16:42:04.832Z,7.93
2022-10-02T16:47:35.997Z,7.50
2022-10-02T16:52:45.581Z,6.47
2022-10-02T16:57:52.708Z,6.30
2022-10-02T17:03:30.447Z,8.33
2022-10-02T17:08:54.004Z,10.13
2022-10-02T17:13:57.311Z,8.70
2022-10-02T17:19:17.819Z,23.80
2022-10-02T17:24:47.574Z,13.37
2022-10-02T17:29:59.251Z,15.97
2022-10-02T17:35:02.691Z,10.70
2022-10-02T17:40:21.818Z,9.50
2022-10-02T17:45:26.622Z,14.93
2022-10-02T17:51:01.891Z,21.47
2022-10-02T17:56:29.493Z,25.33
2022-10-02T18:02:00.247Z,41.77
2022-10-02T18:07:41.691Z,30.53
2022-10-02T18:13:01.493Z,20.33
2022-10-02T18:18:23.113Z,29.83
2022-10-02T18:23:59.248Z,19.90
2022-10-02T18:29:29.576Z,63.33
2022-10-02T18:34:58.685Z,62.50
2022-10-02T18:40:16.729Z,27.13
2022-10-02T18:45:27.400Z,24.90
2022-10-02T18:51:06.655Z,28.30
2022-10-02T18:56:12.442Z,28.50
2022-10-02T19:01:23.602Z,27.37
2022-10-02T19:07:06.243Z,20.30
